createdAt,value
2023-02-27T00:01:03.240Z,98195.88
2023-02-27T00:03:32.298Z,98190.84
2023-02-27T00:06:00.938Z,98190.84
2023-02-27T00:08:29.444Z,98199.44
2023-02-27T00:10:58.228Z,98195.25
2023-02-27T00:13:28.252Z,98196.53
2023-02-27T00:15:57.195Z,98201.63
2023-02-27T00:18:25.809Z,98201.31
2023-02-27T00:20:54.974Z,98203.75
2023-02-27T00:23:23.518Z,98200.50
2023-02-27T00:25:54.766Z,98203.81
2023-02-27T00:28:23.959Z,98201.63
2023-02-27T00:30:53.926Z,98200.50
2023-02-27T00:33:22.669Z,98204.19
2023-02-27T00:35:57.349Z,98210.00
2023-02-27T00:38:26.327Z,98208.41
2023-02-27T00:40:55.158Z,98207.94
2023-02-27T00:43:24.012Z,98214.09
2023-02-27T00:45:53.943Z,98218.38
2023-02-27T00:48:23.138Z,98218.72
2023-02-27T00:50:52.345Z,98208.84
2023-02-27T00:53:21.099Z,98216.28
2023-02-27T00:55:49.682Z,98212.78
2023-02-27T00:58:18.550Z,98214.47
2023-02-27T01:00:47.961Z,98211.19
2023-02-27T01:03:17.878Z,98205.97
2023-02-27T01:05:46.622Z,98204.66
2023-02-27T01:08:15.154Z,98202.59
2023-02-27T01:10:43.911Z,98200.75
2023-02-27T01:13:12.439Z,98198.31
2023-02-27T01:15:40.939Z,98202.81
2023-02-27T01:18:10.830Z,98207.94
2023-02-27T01:20:40.786Z,98212.19
2023-02-27T01:23:10.725Z,98209.22
2023-02-27T01:25:39.897Z,98203.16
2023-02-27T01:28:08.783Z,98202.34
2023-02-27T01:30:38.484Z,98200.06
2023-02-27T01:33:07.009Z,98200.28
2023-02-27T01:35:35.970Z,98208.75
2023-02-27T01:38:06.407Z,98211.06
2023-02-27T01:40:38.103Z,98222.81
2023-02-27T01:43:08.882Z,98230.88
2023-02-27T01:45:42.431Z,98223.69
2023-02-27T01:48:18.346Z,98224.38
2023-02-27T01:50:53.499Z,98220.22
2023-02-27T01:53:26.218Z,98223.03
2023-02-27T01:56:00.349Z,98218.94
2023-02-27T01:58:29.765Z,98216.16
2023-02-27T02:00:58.719Z,98226.03
2023-02-27T02:03:36.878Z,98232.78
2023-02-27T02:06:08.050Z,98225.47
2023-02-27T02:08:46.009Z,98221.50
2023-02-27T02:11:18.758Z,98233.56
2023-02-27T02:13:50.118Z,98229.97
2023-02-27T02:16:49.960Z,98232.78
2023-02-27T02:20:20.864Z,98222.81
2023-02-27T02:23:23.935Z,98231.38
2023-02-27T02:26:40.948Z,98228.59
2023-02-27T02:30:22.270Z,98238.13
2023-02-27T02:33:35.269Z,98236.41
2023-02-27T02:36:51.882Z,98237.44
2023-02-27T02:39:56.332Z,98235.38
2023-02-27T02:42:32.717Z,98238.03
2023-02-27T02:45:16.465Z,98242.00
2023-02-27T02:48:02.947Z,98243.00
2023-02-27T02:50:41.783Z,98244.41
2023-02-27T02:53:37.109Z,98240.53
2023-02-27T02:56:20.243Z,98241.66
2023-02-27T02:58:59.782Z,98239.94
2023-02-27T03:01:34.599Z,98239.34
2023-02-27T03:04:13.658Z,98240.16
2023-02-27T03:06:50.024Z,98238.06
2023-02-27T03:09:27.053Z,98241.28
2023-02-27T03:12:00.401Z,98235.41
2023-02-27T03:14:38.575Z,98235.63
2023-02-27T03:17:15.828Z,98228.31
2023-02-27T03:19:55.058Z,98229.28
2023-02-27T03:22:31.933Z,98234.97
2023-02-27T03:25:06.816Z,98243.06
2023-02-27T03:27:44.624Z,98249.13
2023-02-27T03:30:21.774Z,98246.22
2023-02-27T03:33:02.653Z,98250.16
2023-02-27T03:35:46.084Z,98244.91
2023-02-27T03:38:27.945Z,98242.97
2023-02-27T03:41:12.387Z,98241.66
2023-02-27T03:43:57.468Z,98237.50
2023-02-27T03:46:29.355Z,98247.38
2023-02-27T03:48:59.592Z,98243.78
2023-02-27T03:51:28.931Z,98247.97
2023-02-27T03:54:06.121Z,98246.63
2023-02-27T03:56:41.875Z,98243.25
2023-02-27T03:59:12.070Z,98245.31
2023-02-27T04:01:46.566Z,98247.53
2023-02-27T04:04:17.549Z,98252.19
2023-02-27T04:07:25.665Z,98242.41
2023-02-27T04:10:36.295Z,98255.00
2023-02-27T04:13:44.921Z,98246.88
2023-02-27T04:16:48.364Z,98260.09
2023-02-27T04:19:35.510Z,98258.72
2023-02-27T04:22:22.689Z,98258.25
2023-02-27T04:25:06.486Z,98251.50
2023-02-27T04:27:44.391Z,98264.50
2023-02-27T04:30:29.156Z,98267.88
2023-02-27T04:33:10.578Z,98268.47
2023-02-27T04:35:48.656Z,98276.22
2023-02-27T04:38:27.326Z,98275.88
2023-02-27T04:41:03.344Z,98278.19
2023-02-27T04:43:35.029Z,98279.13
2023-02-27T04:46:09.846Z,98269.19
2023-02-27T04:48:50.092Z,98274.75
2023-02-27T04:51:25.753Z,98284.03
2023-02-27T04:54:01.384Z,98270.78
2023-02-27T04:56:35.952Z,98278.47
2023-02-27T04:59:11.627Z,98279.38
2023-02-27T05:01:48.039Z,98275.34
2023-02-27T05:04:24.006Z,98282.16
2023-02-27T05:06:57.320Z,98283.69
2023-02-27T05:09:35.108Z,98294.25
2023-02-27T05:12:16.498Z,98286.78
2023-02-27T05:14:53.255Z,98289.03
2023-02-27T05:17:29.306Z,98289.81
2023-02-27T05:20:00.443Z,98298.53
2023-02-27T05:22:42.555Z,98294.00
2023-02-27T05:25:22.683Z,98301.78
2023-02-27T05:27:57.689Z,98298.41
2023-02-27T05:30:36.072Z,98297.63
2023-02-27T05:33:15.810Z,98296.66
2023-02-27T05:35:54.486Z,98300.16
2023-02-27T05:38:33.069Z,98302.00
2023-02-27T05:41:09.706Z,98302.94
2023-02-27T05:43:46.059Z,98309.31
2023-02-27T05:46:22.344Z,98310.59
2023-02-27T05:48:56.323Z,98310.59
2023-02-27T05:51:34.629Z,98304.91
2023-02-27T05:54:15.288Z,98305.25
2023-02-27T05:56:48.321Z,98303.84
2023-02-27T05:59:24.994Z,98302.22
2023-02-27T06:01:54.059Z,98310.94
2023-02-27T06:04:22.891Z,98302.00
2023-02-27T06:06:53.629Z,98311.72
2023-02-27T06:09:22.188Z,98320.31
2023-02-27T06:11:50.862Z,98318.72
2023-02-27T06:14:19.848Z,98314.88
2023-02-27T06:16:48.666Z,98313.03
2023-02-27T06:19:17.287Z,98321.03
2023-02-27T06:21:46.005Z,98320.78
2023-02-27T06:24:16.051Z,98324.16
2023-02-27T06:26:44.804Z,98322.53
2023-02-27T06:29:13.410Z,98322.88
2023-02-27T06:31:42.032Z,98327.63
2023-02-27T06:34:10.603Z,98327.72
2023-02-27T06:36:39.106Z,98326.72
2023-02-27T06:39:07.627Z,98332.63
2023-02-27T06:41:37.564Z,98329.94
2023-02-27T06:44:06.293Z,98332.72
2023-02-27T06:46:34.994Z,98327.63
2023-02-27T06:49:03.701Z,98328.56
2023-02-27T06:51:32.804Z,98332.50
2023-02-27T06:54:02.063Z,98331.56
2023-02-27T06:56:30.574Z,98334.59
2023-02-27T06:59:00.570Z,98335.06
2023-02-27T07:01:29.381Z,98335.53
2023-02-27T07:03:58.137Z,98340.50
2023-02-27T07:07:34.630Z,98341.88
2023-02-27T07:09:15.364Z,98350.94
2023-02-27T07:11:44.098Z,98349.09
2023-02-27T07:14:16.572Z,98348.63
2023-02-27T07:16:47.051Z,98351.06
2023-02-27T07:19:16.051Z,98362.31
2023-02-27T07:21:44.980Z,98363.22
2023-02-27T07:24:13.735Z,98361.84
2023-02-27T07:26:43.540Z,98361.28
2023-02-27T07:29:15.690Z,98363.09
2023-02-27T07:31:44.285Z,98371.00
2023-02-27T07:34:15.581Z,98374.47
2023-02-27T07:36:44.301Z,98363.09
2023-02-27T07:39:14.520Z,98372.94
2023-02-27T07:41:44.195Z,98373.53
2023-02-27T07:44:19.925Z,98369.47
2023-02-27T07:46:48.610Z,98377.34
2023-02-27T07:49:17.218Z,98385.84
2023-02-27T07:51:46.167Z,98371.13
2023-02-27T07:54:14.780Z,98375.34
2023-02-27T07:56:43.430Z,98369.66
2023-02-27T07:59:12.593Z,98371.38
2023-02-27T08:01:42.739Z,98370.19
2023-02-27T08:04:11.445Z,98382.78
2023-02-27T08:06:40.040Z,98382.94
2023-02-27T08:09:08.756Z,98370.94
2023-02-27T08:11:37.279Z,98375.63
2023-02-27T08:14:06.455Z,98383.59
2023-02-27T08:16:35.227Z,98384.09
2023-02-27T08:19:05.322Z,98384.16
2023-02-27T08:21:34.067Z,98389.59
2023-02-27T08:24:03.733Z,98381.50
2023-02-27T08:26:34.491Z,98386.97
2023-02-27T08:29:04.448Z,98389.78
2023-02-27T08:31:33.126Z,98391.78
2023-02-27T08:34:09.871Z,98392.78
2023-02-27T08:36:41.076Z,98399.69
2023-02-27T08:39:10.986Z,98398.53
2023-02-27T08:41:40.723Z,98397.66
2023-02-27T08:44:09.402Z,98398.22
2023-02-27T08:46:37.951Z,98398.47
2023-02-27T08:49:06.638Z,98395.16
2023-02-27T08:51:35.295Z,98400.97
2023-02-27T08:54:05.441Z,98402.53
2023-02-27T08:56:34.965Z,98398.31
2023-02-27T08:59:03.666Z,98416.91
2023-02-27T09:01:34.848Z,98405.78
2023-02-27T09:04:04.705Z,98414.91
2023-02-27T09:06:37.793Z,98417.28
2023-02-27T09:09:08.325Z,98409.84
2023-02-27T09:11:38.878Z,98414.31
2023-02-27T09:14:08.103Z,98414.31
2023-02-27T09:16:36.917Z,98413.97
2023-02-27T09:19:06.238Z,98420.13
2023-02-27T09:21:35.009Z,98419.31
2023-02-27T09:24:17.276Z,98417.13
2023-02-27T09:26:51.754Z,98424.25
2023-02-27T09:29:21.361Z,98421.59
2023-02-27T09:31:51.915Z,98432.38
2023-02-27T09:34:20.688Z,98429.78
2023-02-27T09:36:49.864Z,98426.69
2023-02-27T09:39:18.517Z,98416.41
2023-02-27T09:42:01.269Z,98419.69
2023-02-27T09:44:46.618Z,98426.03
2023-02-27T09:47:26.371Z,98410.97
2023-02-27T09:50:03.649Z,98422.63
2023-02-27T09:52:36.555Z,98422.69
2023-02-27T09:55:13.086Z,98425.03
2023-02-27T09:57:53.035Z,98425.53
2023-02-27T10:00:46.215Z,98424.88
2023-02-27T10:03:36.914Z,98428.44
2023-02-27T10:06:24.082Z,98424.72
2023-02-27T10:09:15.051Z,98435.63
2023-02-27T10:12:00.220Z,98437.78
2023-02-27T10:14:42.632Z,98440.34
2023-02-27T10:17:22.546Z,98446.06
2023-02-27T10:19:54.345Z,98441.22
2023-02-27T10:22:31.009Z,98438.50
2023-02-27T10:25:18.097Z,98433.81
2023-02-27T10:28:03.747Z,98437.66
2023-02-27T10:30:34.890Z,98438.09
2023-02-27T10:33:16.823Z,98433.34
2023-02-27T10:35:47.056Z,98445.16
2023-02-27T10:38:20.779Z,98434.91
2023-02-27T10:40:50.149Z,98445.63
2023-02-27T10:43:22.007Z,98454.78
2023-02-27T10:45:52.016Z,98448.63
2023-02-27T10:48:22.594Z,98447.47
2023-02-27T10:50:52.407Z,98447.59
2023-02-27T10:53:25.120Z,98451.91
2023-02-27T10:56:03.923Z,98449.34
2023-02-27T10:58:35.690Z,98450.88
2023-02-27T11:01:08.937Z,98450.41
2023-02-27T11:03:41.701Z,98454.44
2023-02-27T11:06:22.366Z,98444.19
2023-02-27T11:09:21.921Z,98454.31
2023-02-27T11:11:52.046Z,98434.50
2023-02-27T11:14:31.582Z,98437.63
2023-02-27T11:17:04.026Z,98440.28
2023-02-27T11:19:35.856Z,98444.19
2023-02-27T11:22:08.518Z,98432.63
2023-02-27T11:24:37.235Z,98434.25
2023-02-27T11:27:21.812Z,98428.50
2023-02-27T11:30:03.403Z,98432.63
2023-02-27T11:32:45.568Z,98431.38
2023-02-27T11:35:27.339Z,98416.94
2023-02-27T11:38:00.473Z,98413.22
2023-02-27T11:40:34.126Z,98404.94
2023-02-27T11:43:09.521Z,98421.28
2023-02-27T11:46:18.087Z,98417.44
2023-02-27T11:48:39.205Z,98418.16
2023-02-27T11:51:37.409Z,98417.81
2023-02-27T11:54:22.076Z,98413.19
2023-02-27T11:56:58.581Z,98413.38
2023-02-27T11:59:40.390Z,98413.81
2023-02-27T12:02:21.601Z,98401.75
2023-02-27T12:04:57.096Z,98417.72
2023-02-27T12:07:35.265Z,98408.19
2023-02-27T12:10:12.898Z,98405.81
2023-02-27T12:12:51.036Z,98409.72
2023-02-27T12:15:35.276Z,98410.53
2023-02-27T12:18:17.378Z,98401.34
2023-02-27T12:20:56.283Z,98420.47
2023-02-27T12:23:35.121Z,98404.31
2023-02-27T12:26:13.467Z,98408.25
2023-02-27T12:28:55.536Z,98398.59
2023-02-27T12:31:42.205Z,98391.03
2023-02-27T12:34:25.937Z,98395.63
2023-02-27T12:37:01.290Z,98400.63
2023-02-27T12:39:30.385Z,98404.69
2023-02-27T12:42:43.239Z,98383.75
2023-02-27T12:45:54.742Z,98381.19
2023-02-27T12:48:43.383Z,98379.41
2023-02-27T12:51:30.617Z,98403.88
2023-02-27T12:54:20.055Z,98383.28
2023-02-27T12:57:16.192Z,98386.13
2023-02-27T13:00:12.523Z,98380.44
2023-02-27T13:02:56.672Z,98395.41
2023-02-27T13:05:45.087Z,98391.66
2023-02-27T13:08:58.350Z,98379.84
2023-02-27T13:11:47.992Z,98384.91
2023-02-27T13:14:32.421Z,98382.72
2023-02-27T13:17:06.297Z,98374.84
2023-02-27T13:19:44.478Z,98386.94
2023-02-27T13:22:24.509Z,98383.66
2023-02-27T13:24:58.298Z,98381.13
2023-02-27T13:27:34.938Z,98383.22
2023-02-27T13:30:16.689Z,98383.28
2023-02-27T13:32:56.920Z,98378.94
2023-02-27T13:35:36.200Z,98382.97
2023-02-27T13:38:33.374Z,98378.13
2023-02-27T13:41:39.749Z,98374.53
2023-02-27T13:44:42.909Z,98371.75
2023-02-27T13:47:50.034Z,98377.41
2023-02-27T13:50:52.560Z,98382.31
2023-02-27T13:53:24.506Z,98377.84
2023-02-27T13:56:18.913Z,98376.16
2023-02-27T13:58:48.529Z,98372.56
2023-02-27T14:01:28.103Z,98374.22
2023-02-27T14:04:02.952Z,98376.72
2023-02-27T14:06:32.180Z,98385.13
2023-02-27T14:09:14.446Z,98380.09
2023-02-27T14:11:56.214Z,98387.72
2023-02-27T14:14:45.015Z,98389.44
2023-02-27T14:17:44.864Z,98381.28
2023-02-27T14:20:16.255Z,98378.66
2023-02-27T14:23:21.503Z,98392.50
2023-02-27T14:25:55.005Z,98375.91
2023-02-27T14:28:32.571Z,98372.56
2023-02-27T14:31:06.419Z,98372.56
2023-02-27T14:33:45.567Z,98379.78
2023-02-27T14:36:20.348Z,98381.75
2023-02-27T14:38:50.502Z,98392.25
2023-02-27T14:41:48.252Z,98382.00
2023-02-27T14:44:22.848Z,98388.81
2023-02-27T14:46:53.751Z,98383.59
2023-02-27T14:49:29.682Z,98382.84
2023-02-27T14:52:11.195Z,98394.59
2023-02-27T14:54:40.160Z,98383.44
2023-02-27T14:57:16.457Z,98379.84
2023-02-27T14:59:47.738Z,98383.66
2023-02-27T15:02:24.948Z,98373.59
2023-02-27T15:05:15.746Z,98384.88
2023-02-27T15:07:48.500Z,98397.38
2023-02-27T15:10:25.194Z,98385.88
2023-02-27T15:12:54.278Z,98385.16
2023-02-27T15:15:23.118Z,98391.66
2023-02-27T15:17:55.860Z,98396.13
2023-02-27T15:20:30.364Z,98401.50
2023-02-27T15:22:59.798Z,98403.19
2023-02-27T15:25:32.044Z,98399.78
2023-02-27T15:28:06.156Z,98403.69
2023-02-27T15:30:35.240Z,98403.44
2023-02-27T15:33:06.983Z,98405.69
2023-02-27T15:35:43.368Z,98401.94
2023-02-27T15:38:27.073Z,98403.25
2023-02-27T15:40:57.706Z,98403.44
2023-02-27T15:43:29.800Z,98403.75
2023-02-27T15:45:59.425Z,98402.75
2023-02-27T15:48:29.488Z,98405.75
2023-02-27T15:51:04.326Z,98410.56
2023-02-27T15:53:34.213Z,98408.13
2023-02-27T15:56:08.714Z,98416.22
2023-02-27T15:58:48.848Z,98414.84
2023-02-27T16:01:23.334Z,98412.41
2023-02-27T16:03:55.375Z,98428.97
2023-02-27T16:06:30.924Z,98426.16
2023-02-27T16:09:02.759Z,98430.41
2023-02-27T16:11:34.801Z,98430.56
2023-02-27T16:14:06.038Z,98427.22
2023-02-27T16:16:38.833Z,98435.34
2023-02-27T16:19:26.898Z,98450.06
2023-02-27T16:22:12.982Z,98441.00
2023-02-27T16:24:43.664Z,98447.78
2023-02-27T16:27:23.586Z,98454.94
2023-02-27T16:29:53.672Z,98459.16
2023-02-27T16:32:29.549Z,98444.06
2023-02-27T16:35:05.867Z,98457.03
2023-02-27T16:37:40.840Z,98462.97
2023-02-27T16:40:17.258Z,98458.41
2023-02-27T16:42:47.379Z,98470.97
2023-02-27T16:45:18.414Z,98469.53
2023-02-27T16:47:51.072Z,98473.66
2023-02-27T16:50:24.845Z,98488.09
2023-02-27T16:52:55.372Z,98490.19
2023-02-27T16:55:24.676Z,98492.78
2023-02-27T16:57:53.671Z,98491.28
2023-02-27T17:00:23.610Z,98497.16
2023-02-27T17:02:52.628Z,98496.72
2023-02-27T17:05:21.348Z,98502.06
2023-02-27T17:07:49.930Z,98492.09
2023-02-27T17:10:24.582Z,98508.13
2023-02-27T17:12:53.265Z,98508.25
2023-02-27T17:15:22.192Z,98505.13
2023-02-27T17:17:50.790Z,98510.47
2023-02-27T17:20:19.783Z,98511.44
2023-02-27T17:22:48.443Z,98513.75
2023-02-27T17:25:17.093Z,98513.47
2023-02-27T17:27:47.173Z,98527.75
2023-02-27T17:30:17.064Z,98526.69
2023-02-27T17:32:45.712Z,98532.50
2023-02-27T17:35:14.699Z,98522.63
2023-02-27T17:37:43.395Z,98531.84
2023-02-27T17:40:13.806Z,98531.97
2023-02-27T17:42:42.706Z,98535.78
2023-02-27T17:45:14.524Z,98531.72
2023-02-27T17:47:43.773Z,98531.50
2023-02-27T17:50:13.372Z,98539.28
2023-02-27T17:52:42.128Z,98546.16
2023-02-27T17:55:12.790Z,98542.81
2023-02-27T17:57:41.965Z,98545.59
2023-02-27T18:00:16.183Z,98541.75
2023-02-27T18:02:46.023Z,98546.97
2023-02-27T18:05:15.218Z,98551.53
2023-02-27T18:07:43.883Z,98562.81
2023-02-27T18:10:14.229Z,98553.03
2023-02-27T18:12:44.003Z,98554.44
2023-02-27T18:15:14.302Z,98553.97
2023-02-27T18:17:45.269Z,98565.59
2023-02-27T18:20:14.476Z,98565.50
2023-02-27T18:22:43.423Z,98569.34
2023-02-27T18:25:12.294Z,98561.56
2023-02-27T18:27:41.067Z,98565.47
2023-02-27T18:30:11.564Z,98563.50
2023-02-27T18:32:42.593Z,98563.97
2023-02-27T18:35:12.133Z,98564.81
2023-02-27T18:37:41.808Z,98572.25
2023-02-27T18:40:12.634Z,98571.06
2023-02-27T18:42:42.054Z,98568.84
2023-02-27T18:45:12.677Z,98570.72
2023-02-27T18:47:44.630Z,98570.72
2023-02-27T18:50:14.036Z,98573.50
2023-02-27T18:52:42.780Z,98575.56
2023-02-27T18:55:11.712Z,98575.44
2023-02-27T18:57:40.408Z,98585.22
2023-02-27T19:00:11.476Z,98581.94
2023-02-27T19:02:41.677Z,98587.97
2023-02-27T19:05:14.571Z,98589.81
2023-02-27T19:07:43.737Z,98593.78
2023-02-27T19:10:15.053Z,98593.06
2023-02-27T19:12:44.206Z,98589.22
2023-02-27T19:15:13.167Z,98594.22
2023-02-27T19:17:41.846Z,98587.84
2023-02-27T19:20:16.504Z,98587.50
2023-02-27T19:22:45.794Z,98589.50
2023-02-27T19:25:14.585Z,98586.59
2023-02-27T19:27:44.747Z,98598.09
2023-02-27T19:30:14.519Z,98589.97
2023-02-27T19:32:43.249Z,98584.84
2023-02-27T19:35:15.264Z,98592.41
2023-02-27T19:37:46.733Z,98593.22
2023-02-27T19:40:17.280Z,98593.66
2023-02-27T19:42:46.071Z,98591.91
2023-02-27T19:45:15.065Z,98593.09
2023-02-27T19:47:43.883Z,98596.78
2023-02-27T19:50:14.581Z,98590.97
2023-02-27T19:52:43.754Z,98601.97
2023-02-27T19:55:13.027Z,98596.28
2023-02-27T19:57:41.685Z,98595.31
2023-02-27T20:00:14.172Z,98598.06
2023-02-27T20:02:43.335Z,98597.38
2023-02-27T20:05:15.329Z,98608.63
2023-02-27T20:07:44.039Z,98603.72
2023-02-27T20:10:14.033Z,98606.53
2023-02-27T20:12:42.856Z,98593.78
2023-02-27T20:15:12.880Z,98599.34
2023-02-27T20:17:42.619Z,98598.75
2023-02-27T20:20:14.857Z,98595.53
2023-02-27T20:22:44.919Z,98592.84
2023-02-27T20:25:14.940Z,98590.38
2023-02-27T20:27:43.870Z,98591.91
2023-02-27T20:30:13.786Z,98591.28
2023-02-27T20:32:42.806Z,98589.47
2023-02-27T20:35:14.216Z,98594.66
2023-02-27T20:37:42.975Z,98595.84
2023-02-27T20:40:13.606Z,98595.63
2023-02-27T20:42:42.236Z,98591.53
2023-02-27T20:45:11.643Z,98593.97
2023-02-27T20:47:40.424Z,98590.50
2023-02-27T20:50:11.330Z,98588.25
2023-02-27T20:52:41.382Z,98592.59
2023-02-27T20:55:11.603Z,98586.06
2023-02-27T20:57:40.359Z,98582.13
2023-02-27T21:00:12.245Z,98587.84
2023-02-27T21:02:41.033Z,98580.25
2023-02-27T21:05:12.652Z,98589.78
2023-02-27T21:07:46.926Z,98584.81
2023-02-27T21:10:15.602Z,98597.41
2023-02-27T21:12:45.094Z,98589.63
2023-02-27T21:15:14.187Z,98585.25
2023-02-27T21:17:42.990Z,98581.63
2023-02-27T21:20:13.557Z,98578.25
2023-02-27T21:22:42.401Z,98578.66
2023-02-27T21:25:12.701Z,98583.28
2023-02-27T21:27:41.296Z,98577.59
2023-02-27T21:30:12.970Z,98576.63
2023-02-27T21:32:42.345Z,98573.25
2023-02-27T21:35:12.445Z,98564.94
2023-02-27T21:37:46.680Z,98565.63
2023-02-27T21:40:17.643Z,98561.69
2023-02-27T21:42:47.168Z,98561.25
2023-02-27T21:45:16.173Z,98554.88
2023-02-27T21:47:44.992Z,98556.13
2023-02-27T21:50:14.928Z,98552.44
2023-02-27T21:52:43.609Z,98548.13
2023-02-27T21:55:13.287Z,98551.84
2023-02-27T21:57:43.497Z,98552.22
2023-02-27T22:00:14.371Z,98549.16
2023-02-27T22:02:43.921Z,98553.81
2023-02-27T22:05:12.966Z,98549.16
2023-02-27T22:07:41.754Z,98557.63
2023-02-27T22:10:12.404Z,98547.25
2023-02-27T22:12:42.341Z,98547.75
2023-02-27T22:15:12.624Z,98543.50
2023-02-27T22:17:41.224Z,98546.09
2023-02-27T22:20:12.454Z,98541.59
2023-02-27T22:22:40.990Z,98538.94
2023-02-27T22:25:10.199Z,98544.38
2023-02-27T22:27:38.900Z,98545.56
2023-02-27T22:30:11.322Z,98550.28
2023-02-27T22:32:40.646Z,98549.84
2023-02-27T22:35:10.068Z,98546.72
2023-02-27T22:37:38.578Z,98545.69
2023-02-27T22:40:09.259Z,98551.22
2023-02-27T22:42:37.912Z,98549.16
2023-02-27T22:45:09.453Z,98554.94
2023-02-27T22:47:38.257Z,98550.56
2023-02-27T22:50:08.600Z,98542.56
2023-02-27T22:52:37.972Z,98553.47
2023-02-27T22:55:08.056Z,98541.75
2023-02-27T22:57:36.499Z,98549.97
2023-02-27T23:00:11.809Z,98544.19
2023-02-27T23:02:42.307Z,98545.81
2023-02-27T23:05:12.121Z,98547.69
2023-02-27T23:07:42.192Z,98540.94
2023-02-27T23:10:12.665Z,98539.91
2023-02-27T23:12:41.159Z,98537.56
2023-02-27T23:15:12.686Z,98541.97
2023-02-27T23:17:52.182Z,98544.06
2023-02-27T23:20:26.530Z,98538.72
2023-02-27T23:22:55.382Z,98529.09
2023-02-27T23:25:23.959Z,98539.16
2023-02-27T23:27:52.452Z,98532.00
2023-02-27T23:30:23.042Z,98535.81
2023-02-27T23:32:51.750Z,98531.53
2023-02-27T23:35:22.601Z,98528.97
2023-02-27T23:37:52.204Z,98524.09
2023-02-27T23:40:22.263Z,98522.44
2023-02-27T23:43:08.893Z,98522.44
2023-02-27T23:45:39.557Z,98520.44
2023-02-27T23:48:09.531Z,98519.44
2023-02-27T23:50:40.741Z,98515.72
2023-02-27T23:53:10.350Z,98521.50
2023-02-27T23:55:39.400Z,98524.03
2023-02-27T23:58:10.463Z,98516.47
